Winnsboro, Louisiana
Current Conditions -  °F | °C
As of 2:53 PM on Thursday 23 Oct 2014 (Local Time) from KMLU Reporting Station
Clear Clear  
Wind Chill: 67°   Ceiling: Unl
Heat Index: 67°   Visibility: 10mi
Dew Point: 47°   Wind: 7mph
Humidity: 49%   Direction: 10°N
Pressure: 30.13"   Gusts: NA
Location:  32.17°N, 91.72°W
Report Text: KMLU 231953Z 01006KT 10SM CLR 19/08 A3013 RMK AO2 SLPNO T01940083
Loading
Personal Weather Stations






























Interactive Weather Map
Tropical Storm Tracking
New forecast layout! Learn more

10-Day Weather Forecast

Advertisements
Track Severe Weather on mobile